createdAt,value
2018-06-25T00:00:39.259Z,59.03
2018-06-25T00:01:39.185Z,59.14
2018-06-25T00:02:39.187Z,59.12
2018-06-25T00:03:39.214Z,59.15
2018-06-25T00:04:39.294Z,58.89
2018-06-25T00:05:39.188Z,58.82
2018-06-25T00:06:39.191Z,58.87
2018-06-25T00:07:39.203Z,58.87
2018-06-25T00:08:39.225Z,59.06
2018-06-25T00:09:39.175Z,58.9
2018-06-25T00:10:39.179Z,59
2018-06-25T00:11:39.195Z,59
2018-06-25T00:12:39.185Z,59.09
2018-06-25T00:13:39.292Z,59.3
2018-06-25T00:14:39.179Z,59.29
2018-06-25T00:15:39.194Z,59.13
2018-06-25T00:16:39.184Z,59.26
2018-06-25T00:17:39.185Z,59.31
2018-06-25T00:18:39.195Z,59.28
2018-06-25T00:19:39.215Z,59.2
2018-06-25T00:20:39.200Z,59.24
2018-06-25T00:21:39.189Z,59.25
2018-06-25T00:22:39.200Z,59.09
2018-06-25T00:23:39.206Z,59.38
2018-06-25T00:24:39.182Z,59.44
2018-06-25T00:25:39.246Z,59.38
2018-06-25T00:26:39.186Z,59.14
2018-06-25T00:27:39.190Z,59.25
2018-06-25T00:28:39.188Z,59.24
2018-06-25T00:29:39.208Z,59.17
2018-06-25T00:30:39.224Z,59.38
2018-06-25T00:31:39.188Z,59.41
2018-06-25T00:32:39.187Z,59.48
2018-06-25T00:33:39.253Z,59.54
2018-06-25T00:34:39.260Z,59.31
2018-06-25T00:35:39.261Z,59.35
2018-06-25T00:36:39.213Z,59.38
2018-06-25T00:37:39.194Z,59.22
2018-06-25T00:38:39.217Z,59.37
2018-06-25T00:39:39.376Z,59.58
2018-06-25T00:40:39.285Z,59.83
2018-06-25T00:41:39.224Z,59.76
2018-06-25T00:42:39.229Z,59.86
2018-06-25T00:43:39.197Z,59.93
2018-06-25T00:44:39.239Z,59.96
2018-06-25T00:45:39.202Z,59.91
2018-06-25T00:46:39.256Z,59.89
2018-06-25T00:47:39.284Z,60.23
2018-06-25T00:48:39.357Z,60.16
2018-06-25T00:49:39.203Z,60
2018-06-25T00:50:39.402Z,60.06
2018-06-25T00:51:39.235Z,60.1
2018-06-25T00:52:39.210Z,60.04
2018-06-25T00:53:39.255Z,59.96
2018-06-25T00:54:39.222Z,60.21
2018-06-25T00:55:39.193Z,60.19
2018-06-25T00:56:39.222Z,60.19
2018-06-25T00:57:39.262Z,60.14
2018-06-25T00:58:39.476Z,60.27
2018-06-25T00:59:39.326Z,60.52
2018-06-25T01:00:39.384Z,60.38
2018-06-25T01:01:40.338Z,60.65
2018-06-25T01:02:39.227Z,60.61
2018-06-25T01:03:39.233Z,60.55
2018-06-25T01:04:39.591Z,60.57
2018-06-25T01:05:39.222Z,60.4
2018-06-25T01:06:39.315Z,60.49
2018-06-25T01:07:39.245Z,60.65
2018-06-25T01:08:39.225Z,60.96
2018-06-25T01:09:39.231Z,60.8
2018-06-25T01:10:39.257Z,60.81
2018-06-25T01:11:39.239Z,61.05
2018-06-25T01:12:39.330Z,61.05
2018-06-25T01:13:39.221Z,61.02
2018-06-25T01:14:39.208Z,61.03
2018-06-25T01:15:39.296Z,61.05
2018-06-25T01:16:39.228Z,61.05
2018-06-25T01:17:39.229Z,61.05
2018-06-25T01:18:39.229Z,60.94
2018-06-25T01:19:39.308Z,61.2
2018-06-25T01:20:39.371Z,60.97
2018-06-25T01:21:39.345Z,61.1
2018-06-25T01:22:39.421Z,61.16
2018-06-25T01:23:39.315Z,61.29
2018-06-25T01:24:39.395Z,61.38
2018-06-25T01:25:39.246Z,61.49
2018-06-25T01:26:39.227Z,61.31
2018-06-25T01:27:39.240Z,61.37
2018-06-25T01:28:39.247Z,61.58
2018-06-25T01:29:39.255Z,61.51
2018-06-25T01:30:39.307Z,61.49
2018-06-25T01:31:39.283Z,61.56
2018-06-25T01:32:39.224Z,61.42
2018-06-25T01:33:39.247Z,61.46
2018-06-25T01:34:39.259Z,61.52
2018-06-25T01:35:39.237Z,61.69
2018-06-25T01:36:39.229Z,61.36
2018-06-25T01:37:39.227Z,61.73
2018-06-25T01:38:39.234Z,61.46
2018-06-25T01:39:39.260Z,61.21
2018-06-25T01:40:39.238Z,61.49
2018-06-25T01:41:39.251Z,61.24
2018-06-25T01:42:39.254Z,61.63
2018-06-25T01:43:39.405Z,61.64
2018-06-25T01:44:39.270Z,61.74
2018-06-25T01:45:39.238Z,61.48
2018-06-25T01:46:39.290Z,61.49
2018-06-25T01:47:39.293Z,61.65
2018-06-25T01:48:39.247Z,61.92
2018-06-25T01:49:39.261Z,61.51
2018-06-25T01:50:39.285Z,61.74
2018-06-25T01:51:39.261Z,61.78
2018-06-25T01:52:39.279Z,61.9
2018-06-25T01:53:39.305Z,62.1
2018-06-25T01:54:39.261Z,61.88
2018-06-25T01:55:39.263Z,61.73
2018-06-25T01:56:39.250Z,61.64
2018-06-25T01:57:39.418Z,62.39
2018-06-25T01:58:39.382Z,62.63
2018-06-25T01:59:39.265Z,62.69
2018-06-25T02:00:39.320Z,62.9
2018-06-25T02:01:39.280Z,62.73
2018-06-25T02:02:39.277Z,62.46
2018-06-25T02:03:39.286Z,62.42
2018-06-25T02:04:39.256Z,62.4
2018-06-25T02:05:39.275Z,62.39
2018-06-25T02:06:39.749Z,62.25
2018-06-25T02:07:39.251Z,62.46
2018-06-25T02:08:39.327Z,62.23
2018-06-25T02:09:39.249Z,62.66
2018-06-25T02:10:39.297Z,62.32
2018-06-25T02:11:39.264Z,62.51
2018-06-25T02:12:39.356Z,62.43
2018-06-25T02:13:39.263Z,62.02
2018-06-25T02:14:39.363Z,62.29
2018-06-25T02:15:39.453Z,62.44
2018-06-25T02:16:39.306Z,62.58
2018-06-25T02:17:39.278Z,62.38
2018-06-25T02:18:39.274Z,62.33
2018-06-25T02:19:39.308Z,62.35
2018-06-25T02:20:39.259Z,62.67
2018-06-25T02:21:39.935Z,62.29
2018-06-25T02:22:39.419Z,62.33
2018-06-25T02:23:39.329Z,62.23
2018-06-25T02:24:39.285Z,62.18
2018-06-25T02:25:39.290Z,62.29
2018-06-25T02:26:39.293Z,62.34
2018-06-25T02:27:39.270Z,62.16
2018-06-25T02:28:39.321Z,61.99
2018-06-25T02:29:39.282Z,62.24
2018-06-25T02:30:39.277Z,62
2018-06-25T02:31:39.281Z,62.06
2018-06-25T02:32:39.299Z,62.18
2018-06-25T02:33:39.316Z,62.33
2018-06-25T02:34:39.437Z,62.02
2018-06-25T02:35:39.309Z,62.17
2018-06-25T02:36:39.263Z,62.24
2018-06-25T02:37:39.272Z,62.36
2018-06-25T02:38:39.343Z,62.13
2018-06-25T02:39:39.274Z,62.4
2018-06-25T02:40:39.282Z,62.07
2018-06-25T02:41:39.294Z,62.25
2018-06-25T02:42:39.299Z,61.9
2018-06-25T02:43:39.303Z,62.11
2018-06-25T02:44:39.292Z,62.08
2018-06-25T02:45:39.277Z,62.29
2018-06-25T02:46:39.287Z,62.4
2018-06-25T02:47:39.299Z,62.2
2018-06-25T02:48:39.301Z,61.99
2018-06-25T02:49:39.307Z,62.49
2018-06-25T02:50:39.301Z,62.02
2018-06-25T02:51:39.297Z,62.24
2018-06-25T02:52:39.350Z,62.19
2018-06-25T02:53:39.334Z,62.25
2018-06-25T02:54:39.294Z,62.54
2018-06-25T02:55:39.289Z,62.57
2018-06-25T02:56:39.297Z,62.56
2018-06-25T02:57:39.393Z,62.5
2018-06-25T02:58:39.293Z,62.33
2018-06-25T02:59:39.375Z,62.85
2018-06-25T03:00:39.311Z,62.94
2018-06-25T03:01:39.360Z,62.87
2018-06-25T03:02:39.302Z,62.97
2018-06-25T03:03:39.297Z,62.98
2018-06-25T03:04:39.369Z,63.44
2018-06-25T03:05:39.347Z,63.53
2018-06-25T03:06:39.333Z,63.55
2018-06-25T03:07:39.287Z,63.48
2018-06-25T03:08:39.328Z,63.82
2018-06-25T03:09:39.314Z,63.82
2018-06-25T03:10:39.302Z,63.81
2018-06-25T03:11:39.303Z,63.82
2018-06-25T03:12:39.290Z,63.63
2018-06-25T03:13:39.323Z,63.9
2018-06-25T03:14:39.300Z,64.23
2018-06-25T03:15:39.434Z,64.17
2018-06-25T03:16:39.298Z,64.25
2018-06-25T03:17:39.327Z,64.26
2018-06-25T03:18:39.301Z,64.7
2018-06-25T03:19:39.447Z,64.85
2018-06-25T03:20:39.312Z,64.72
2018-06-25T03:21:39.319Z,64.82
2018-06-25T03:22:39.325Z,64.6
2018-06-25T03:23:39.326Z,64.75
2018-06-25T03:24:39.344Z,65.12
2018-06-25T03:25:39.305Z,65.38
2018-06-25T03:26:39.296Z,65.39
2018-06-25T03:27:39.293Z,65
2018-06-25T03:28:39.394Z,65.2
2018-06-25T03:29:39.325Z,65.05
2018-06-25T03:30:39.331Z,65.32
2018-06-25T03:31:39.336Z,65.4
2018-06-25T03:32:39.334Z,65.41
2018-06-25T03:33:39.326Z,65.66
2018-06-25T03:34:39.338Z,65.91
2018-06-25T03:35:39.311Z,66.12
2018-06-25T03:36:39.627Z,65.85
2018-06-25T03:37:39.316Z,65.75
2018-06-25T03:38:39.337Z,65.41
2018-06-25T03:39:39.337Z,66
2018-06-25T03:40:39.391Z,66.07
2018-06-25T03:41:39.312Z,66.07
2018-06-25T03:42:39.498Z,66.2
2018-06-25T03:43:39.358Z,66.32
2018-06-25T03:44:39.319Z,66.2
2018-06-25T03:45:39.336Z,66.41
2018-06-25T03:46:39.335Z,66.33
2018-06-25T03:47:39.314Z,65.82
2018-06-25T03:48:39.314Z,65.91
2018-06-25T03:49:39.338Z,65.7
2018-06-25T03:50:39.380Z,65.14
2018-06-25T03:51:39.379Z,65.73
2018-06-25T03:52:39.334Z,65.46
2018-06-25T03:53:39.340Z,66.06
2018-06-25T03:54:39.333Z,66.31
2018-06-25T03:55:39.344Z,66.08
2018-06-25T03:56:39.353Z,66.07
2018-06-25T03:57:39.349Z,66.33
2018-06-25T03:58:39.324Z,66.43
2018-06-25T03:59:39.322Z,66.37
2018-06-25T04:00:39.321Z,66.4
2018-06-25T04:01:39.362Z,66.07
2018-06-25T04:02:39.445Z,66.14
2018-06-25T04:03:39.333Z,66.44
2018-06-25T04:04:39.506Z,66.53
2018-06-25T04:05:39.325Z,66.41
2018-06-25T04:06:39.329Z,66.1
2018-06-25T04:07:39.343Z,66.36
2018-06-25T04:08:39.354Z,65.82
2018-06-25T04:09:39.395Z,66.11
2018-06-25T04:10:39.389Z,66.81
2018-06-25T04:11:39.396Z,66.2
2018-06-25T04:12:39.415Z,66.95
2018-06-25T04:13:39.340Z,66.57
2018-06-25T04:14:39.392Z,66.79
2018-06-25T04:15:39.335Z,66.52
2018-06-25T04:16:39.324Z,66.4
2018-06-25T04:17:39.385Z,66.95
2018-06-25T04:18:39.402Z,67.28
2018-06-25T04:19:39.371Z,66.78
2018-06-25T04:20:39.457Z,67.22
2018-06-25T04:21:39.366Z,66.87
2018-06-25T04:22:39.394Z,66.42
2018-06-25T04:23:39.377Z,66.97
2018-06-25T04:24:39.635Z,66.81
2018-06-25T04:25:39.363Z,67.18
2018-06-25T04:26:39.344Z,67.34
2018-06-25T04:27:39.349Z,67.53
2018-06-25T04:28:39.422Z,66.92
2018-06-25T04:29:39.525Z,66.66
2018-06-25T04:30:39.584Z,66.76
2018-06-25T04:31:39.347Z,66.27
2018-06-25T04:32:39.388Z,66.95
2018-06-25T04:33:39.356Z,67.3
2018-06-25T04:34:39.372Z,67.42
2018-06-25T04:35:39.511Z,67.03
2018-06-25T04:36:39.483Z,67.34
2018-06-25T04:37:39.374Z,67.46
2018-06-25T04:38:39.376Z,67.4
2018-06-25T04:39:39.556Z,67.12
2018-06-25T04:40:39.368Z,67.53
2018-06-25T04:41:39.349Z,67.53
2018-06-25T04:42:39.363Z,67.6
2018-06-25T04:43:39.368Z,67.61
2018-06-25T04:44:39.395Z,67.19
2018-06-25T04:45:39.448Z,67.55
2018-06-25T04:46:39.369Z,67.48
2018-06-25T04:47:39.348Z,67.33
2018-06-25T04:48:39.503Z,66.8
2018-06-25T04:49:39.517Z,67.43
2018-06-25T04:50:39.337Z,67.33
2018-06-25T04:51:39.401Z,68.15
2018-06-25T04:52:39.363Z,67.8
2018-06-25T04:53:39.346Z,67.65
2018-06-25T04:54:39.366Z,67.61
2018-06-25T04:55:39.352Z,67.49
2018-06-25T04:56:39.364Z,67.97
2018-06-25T04:57:39.407Z,68.24
2018-06-25T04:58:39.415Z,68.43
2018-06-25T04:59:39.378Z,67.87
2018-06-25T05:00:39.363Z,68.3
2018-06-25T05:01:39.409Z,68.4
2018-06-25T05:02:39.360Z,68.23
2018-06-25T05:03:39.371Z,68.54
2018-06-25T05:04:39.386Z,68.51
2018-06-25T05:05:39.359Z,68.65
2018-06-25T05:06:39.358Z,69.11
2018-06-25T05:07:39.378Z,68.56
2018-06-25T05:08:39.374Z,68.57
2018-06-25T05:09:39.384Z,68.61
2018-06-25T05:10:39.393Z,68.84
2018-06-25T05:11:39.411Z,69
2018-06-25T05:12:39.516Z,69.17
2018-06-25T05:13:39.410Z,68.57
2018-06-25T05:14:39.428Z,68.84
2018-06-25T05:15:39.397Z,68.57
2018-06-25T05:16:39.414Z,68.84
2018-06-25T05:17:39.358Z,68.68
2018-06-25T05:18:39.369Z,69.26
2018-06-25T05:19:39.392Z,69.42
2018-06-25T05:20:39.411Z,69.22
2018-06-25T05:21:39.487Z,68.82
2018-06-25T05:22:39.399Z,68.36
2018-06-25T05:23:39.366Z,69.06
2018-06-25T05:24:39.366Z,68.92
2018-06-25T05:25:39.415Z,68.73
2018-06-25T05:26:39.492Z,68.87
2018-06-25T05:27:39.391Z,68.35
2018-06-25T05:28:39.427Z,68.5
2018-06-25T05:29:39.401Z,69.26
2018-06-25T05:30:39.586Z,69.35
2018-06-25T05:31:39.433Z,68.99
2018-06-25T05:32:39.544Z,69.21
2018-06-25T05:33:39.410Z,69.29
2018-06-25T05:34:39.548Z,68.99
2018-06-25T05:35:39.485Z,69.7
2018-06-25T05:36:39.558Z,69.48
2018-06-25T05:37:39.381Z,69.36
2018-06-25T05:38:39.384Z,69.72
2018-06-25T05:39:39.417Z,69.67
2018-06-25T05:40:39.396Z,69.6
2018-06-25T05:41:39.388Z,68.97
2018-06-25T05:42:39.500Z,69.55
2018-06-25T05:43:39.390Z,69.83
2018-06-25T05:44:39.388Z,70.17
2018-06-25T05:45:39.401Z,69.49
2018-06-25T05:46:39.401Z,69.47
2018-06-25T05:47:39.415Z,69.64
2018-06-25T05:48:39.415Z,69.69
2018-06-25T05:49:39.428Z,69.47
2018-06-25T05:50:39.436Z,70.07
2018-06-25T05:51:39.396Z,70.05
2018-06-25T05:52:39.378Z,70.24
2018-06-25T05:53:39.461Z,70.01
2018-06-25T05:54:39.405Z,69.8
2018-06-25T05:55:39.450Z,69.36
2018-06-25T05:56:39.429Z,69.77
2018-06-25T05:57:39.405Z,69.88
2018-06-25T05:58:39.581Z,69.79
2018-06-25T05:59:39.499Z,69.5
2018-06-25T06:00:39.399Z,69.92
2018-06-25T06:01:39.412Z,69.93
2018-06-25T06:02:39.710Z,69.99
2018-06-25T06:03:39.417Z,70.13
2018-06-25T06:04:39.421Z,70.1
2018-06-25T06:05:39.435Z,70
2018-06-25T06:06:39.427Z,70.27
2018-06-25T06:07:39.428Z,70.03
2018-06-25T06:08:39.398Z,70.31
2018-06-25T06:09:39.406Z,70.31
2018-06-25T06:10:39.400Z,70.63
2018-06-25T06:11:39.563Z,70.23
2018-06-25T06:12:39.483Z,70.66
2018-06-25T06:13:40.604Z,70.76
2018-06-25T06:14:40.618Z,70.72
2018-06-25T06:15:39.431Z,70.44
2018-06-25T06:16:39.417Z,70.41
2018-06-25T06:17:39.517Z,70.46
2018-06-25T06:18:39.512Z,70.62
2018-06-25T06:19:39.524Z,70.54
2018-06-25T06:20:39.444Z,70.45
2018-06-25T06:21:39.737Z,70.89
2018-06-25T06:22:39.459Z,70.81
2018-06-25T06:23:39.424Z,70.98
2018-06-25T06:24:39.547Z,70.93
2018-06-25T06:25:39.417Z,71.27
2018-06-25T06:26:39.563Z,71.23
2018-06-25T06:27:39.591Z,71.17
2018-06-25T06:28:39.439Z,71
2018-06-25T06:29:39.591Z,71.07
2018-06-25T06:30:39.607Z,71.08
2018-06-25T06:31:40.018Z,71.11
2018-06-25T06:32:40.538Z,71.04
2018-06-25T06:33:39.613Z,70.8
2018-06-25T06:34:39.512Z,71
2018-06-25T06:35:39.525Z,71.12
2018-06-25T06:36:39.439Z,71.27
2018-06-25T06:37:39.641Z,71.33
2018-06-25T06:38:39.547Z,71
2018-06-25T06:39:39.658Z,70.74
2018-06-25T06:40:39.561Z,71.06
2018-06-25T06:41:39.667Z,71.09
2018-06-25T06:42:39.519Z,70.95
2018-06-25T06:43:39.576Z,70.79
2018-06-25T06:44:39.586Z,70.73
2018-06-25T06:45:39.495Z,70.92
2018-06-25T06:46:39.702Z,71.13
2018-06-25T06:47:39.602Z,71.04
2018-06-25T06:48:39.609Z,70.96
2018-06-25T06:49:39.628Z,70.89
2018-06-25T06:50:39.523Z,70.87
2018-06-25T06:51:39.527Z,70.51
2018-06-25T06:52:39.543Z,70.75
2018-06-25T06:53:54.424Z,70.75
2018-06-25T06:54:39.553Z,70.66
2018-06-25T06:55:39.452Z,70.81
2018-06-25T06:57:39.575Z,71.04
2018-06-25T06:58:39.443Z,70.68
2018-06-25T06:59:39.442Z,70.87
2018-06-25T07:00:39.595Z,70.82
2018-06-25T07:01:39.438Z,70.82
2018-06-25T07:02:39.708Z,70.91
2018-06-25T07:03:39.467Z,71.17
2018-06-25T07:04:39.453Z,71.04
2018-06-25T07:05:39.529Z,70.71
2018-06-25T07:06:39.452Z,70.55
2018-06-25T07:07:39.445Z,70.57
2018-06-25T07:08:39.586Z,70.56
2018-06-25T07:09:39.598Z,70.62
2018-06-25T07:10:39.496Z,70.73
2018-06-25T07:11:39.648Z,70.92
2018-06-25T07:12:39.622Z,71
2018-06-25T07:13:39.483Z,70.72
2018-06-25T07:14:39.443Z,69.97
2018-06-25T07:15:39.631Z,70.93
2018-06-25T07:16:39.458Z,70.91
2018-06-25T07:17:39.521Z,70.44
2018-06-25T07:18:39.468Z,70.72
2018-06-25T07:19:39.461Z,70.23
2018-06-25T07:20:39.493Z,69.98
2018-06-25T07:21:39.466Z,70.23
2018-06-25T07:22:39.598Z,70.57
2018-06-25T07:23:39.454Z,70.26
2018-06-25T07:24:39.654Z,70.67
2018-06-25T07:25:39.485Z,70.49
2018-06-25T07:26:39.466Z,70.21
2018-06-25T07:27:39.467Z,70.26
2018-06-25T07:28:39.460Z,70.1
2018-06-25T07:29:39.466Z,70.1
2018-06-25T07:30:39.473Z,70.22
2018-06-25T07:31:39.470Z,69.79
2018-06-25T07:32:39.450Z,70.33
2018-06-25T07:33:39.474Z,69.81
2018-06-25T07:34:39.452Z,70.37
2018-06-25T07:35:39.478Z,69.92
2018-06-25T07:36:39.456Z,69.77
2018-06-25T07:37:39.460Z,69.99
2018-06-25T07:38:39.482Z,69.87
2018-06-25T07:39:39.493Z,69.93
2018-06-25T07:40:39.531Z,69.7
2018-06-25T07:41:39.501Z,69.84
2018-06-25T07:42:39.477Z,69.28
2018-06-25T07:43:39.464Z,69.72
2018-06-25T07:44:39.684Z,69.51
2018-06-25T07:45:39.472Z,68.86
2018-06-25T07:46:39.467Z,68.85
2018-06-25T07:47:39.516Z,68.95
2018-06-25T07:48:39.506Z,69.1
2018-06-25T07:49:39.470Z,69.28
2018-06-25T07:50:39.469Z,69.29
2018-06-25T07:51:39.488Z,69.03
2018-06-25T07:52:39.465Z,68.33
2018-06-25T07:53:39.692Z,68.33
2018-06-25T07:54:39.479Z,68.61
2018-06-25T07:55:39.483Z,68.6
2018-06-25T07:56:39.630Z,68.06
2018-06-25T07:57:39.560Z,67.67
2018-06-25T07:58:39.500Z,67.95
2018-06-25T07:59:39.515Z,68.1
2018-06-25T08:00:39.475Z,67.86
2018-06-25T08:01:39.567Z,67.1
2018-06-25T08:02:39.491Z,67.22
2018-06-25T08:03:39.547Z,67.21
2018-06-25T08:04:39.496Z,67.78
2018-06-25T08:05:39.503Z,67.29
2018-06-25T08:06:39.503Z,67.65
2018-06-25T08:07:39.505Z,67.89
2018-06-25T08:08:39.648Z,67.44
2018-06-25T08:09:39.661Z,67.52
2018-06-25T08:10:39.761Z,67.32
2018-06-25T08:11:39.569Z,67.1
2018-06-25T08:12:39.572Z,66.99
2018-06-25T08:13:39.678Z,66.21
2018-06-25T08:14:39.511Z,66.31
2018-06-25T08:15:39.673Z,66.43
2018-06-25T08:16:39.751Z,65.51
2018-06-25T08:17:39.499Z,65.11
2018-06-25T08:18:39.595Z,65.82
2018-06-25T08:19:39.513Z,65.85
2018-06-25T08:20:39.713Z,65.28
2018-06-25T08:21:39.643Z,65.34
2018-06-25T08:22:39.496Z,65.32
2018-06-25T08:23:39.492Z,65.27
2018-06-25T08:24:39.493Z,65.06
2018-06-25T08:25:39.499Z,65.13
2018-06-25T08:26:39.522Z,65.18
2018-06-25T08:27:39.648Z,65.69
2018-06-25T08:28:39.499Z,65.12
2018-06-25T08:29:39.558Z,65.33
2018-06-25T08:30:39.495Z,65.43
2018-06-25T08:31:39.699Z,65.13
2018-06-25T08:32:39.505Z,64.51
2018-06-25T08:33:39.484Z,64.78
2018-06-25T08:34:39.504Z,65.44
2018-06-25T08:35:39.494Z,65.81
2018-06-25T08:36:39.519Z,65.82
2018-06-25T08:37:39.573Z,65.65
2018-06-25T08:38:39.492Z,64.79
2018-06-25T08:39:39.496Z,64.18
2018-06-25T08:40:39.501Z,64.3
2018-06-25T08:41:39.674Z,64.11
2018-06-25T08:42:39.516Z,64.18
2018-06-25T08:43:39.697Z,64.47
2018-06-25T08:44:39.691Z,63.63
2018-06-25T08:45:39.524Z,63.22
2018-06-25T08:46:39.526Z,63.92
2018-06-25T08:47:39.515Z,62.76
2018-06-25T08:48:39.510Z,63.71
2018-06-25T08:49:40.761Z,63.78
2018-06-25T08:50:39.536Z,63.78
2018-06-25T08:51:39.551Z,63.93
2018-06-25T08:52:39.510Z,63.66
2018-06-25T08:53:39.532Z,64.27
2018-06-25T08:54:39.550Z,63.67
2018-06-25T08:55:39.712Z,63.11
2018-06-25T08:56:39.524Z,63.55
2018-06-25T08:57:39.507Z,63.22
2018-06-25T08:58:39.614Z,63.02
2018-06-25T08:59:39.516Z,62.85
2018-06-25T09:00:39.526Z,62.5
2018-06-25T09:01:39.544Z,62.65
2018-06-25T09:02:39.592Z,62.77
2018-06-25T09:03:39.529Z,62.2
2018-06-25T09:04:39.629Z,60.71
2018-06-25T09:05:39.579Z,59.88
2018-06-25T09:06:39.535Z,60.94
2018-06-25T09:07:39.553Z,60.31
2018-06-25T09:08:39.559Z,60.66
2018-06-25T09:09:39.567Z,60.65
2018-06-25T09:10:39.549Z,59.81
2018-06-25T09:11:39.601Z,59.48
2018-06-25T09:12:39.517Z,60.08
2018-06-25T09:13:39.553Z,60.2
2018-06-25T09:14:39.694Z,58.45
2018-06-25T09:15:39.770Z,57.85
2018-06-25T09:16:39.520Z,57.28
2018-06-25T09:17:39.696Z,57.24
2018-06-25T09:18:39.584Z,58.08
2018-06-25T09:19:39.524Z,57.61
2018-06-25T09:20:39.532Z,56.71
2018-06-25T09:21:39.529Z,57.08
2018-06-25T09:22:39.674Z,58.6
2018-06-25T09:23:39.549Z,58.41
2018-06-25T09:24:39.542Z,59.36
2018-06-25T09:25:39.542Z,59.73
2018-06-25T09:26:39.530Z,59.68
2018-06-25T09:27:39.565Z,59.54
2018-06-25T09:28:39.553Z,59.18
2018-06-25T09:29:39.690Z,59.64
2018-06-25T09:30:39.540Z,58.05
2018-06-25T09:31:39.719Z,58.28
2018-06-25T09:32:39.539Z,58.24
2018-06-25T09:33:39.542Z,58.14
2018-06-25T09:34:39.725Z,57.64
2018-06-25T09:35:39.542Z,57.46
2018-06-25T09:36:39.588Z,56.83
2018-06-25T09:37:39.649Z,57
2018-06-25T09:38:39.547Z,57.04
2018-06-25T09:39:39.554Z,56.71
2018-06-25T09:40:39.551Z,56.11
2018-06-25T09:41:39.662Z,56.54
2018-06-25T09:42:39.561Z,56.16
2018-06-25T09:43:39.558Z,56.44
2018-06-25T09:44:39.545Z,56.83
2018-06-25T09:45:39.563Z,55.91
2018-06-25T09:46:39.709Z,56.25
2018-06-25T09:47:39.545Z,56.22
2018-06-25T09:48:39.545Z,55.84
2018-06-25T09:49:39.637Z,55.39
2018-06-25T09:50:39.573Z,55.85
2018-06-25T09:51:39.551Z,56.1
2018-06-25T09:52:39.558Z,56.18
2018-06-25T09:53:39.575Z,56.12
2018-06-25T09:54:39.572Z,56.07
2018-06-25T09:55:39.562Z,56.52
2018-06-25T09:56:39.562Z,56.06
2018-06-25T09:57:39.568Z,57.12
2018-06-25T09:58:39.581Z,56.57
2018-06-25T09:59:39.595Z,55.91
2018-06-25T10:00:39.570Z,55.39
2018-06-25T10:01:39.593Z,54.61
2018-06-25T10:02:39.569Z,54.82
2018-06-25T10:03:39.554Z,54.89
2018-06-25T10:04:39.845Z,54.85
2018-06-25T10:05:39.721Z,54.98
2018-06-25T10:06:39.642Z,54.53
2018-06-25T10:07:39.634Z,54.84
2018-06-25T10:08:39.891Z,55.39
2018-06-25T10:09:39.774Z,55.44
2018-06-25T10:10:39.838Z,56.11
2018-06-25T10:11:39.650Z,56.06
2018-06-25T10:12:39.690Z,56.15
2018-06-25T10:13:39.706Z,55.78
2018-06-25T10:14:39.595Z,55.25
2018-06-25T10:15:39.574Z,55.32
2018-06-25T10:16:39.944Z,55.15
2018-06-25T10:17:39.578Z,55.79
2018-06-25T10:18:39.671Z,55.65
2018-06-25T10:19:39.840Z,55.54
2018-06-25T10:20:39.649Z,55.65
2018-06-25T10:21:39.662Z,55.77
2018-06-25T10:22:39.622Z,55.67
2018-06-25T10:23:39.570Z,55.73
2018-06-25T10:24:39.584Z,55.9
2018-06-25T10:25:39.733Z,55.2
2018-06-25T10:26:39.679Z,55.43
2018-06-25T10:27:39.609Z,55.67
2018-06-25T10:28:39.594Z,52.69
2018-06-25T10:29:39.624Z,53.33
2018-06-25T10:30:39.605Z,53.82
2018-06-25T10:31:39.716Z,53.67
2018-06-25T10:32:39.644Z,54.13
2018-06-25T10:33:39.585Z,53.86
2018-06-25T10:34:39.632Z,54.36
2018-06-25T10:35:39.587Z,53.96
2018-06-25T10:36:39.586Z,54.06
2018-06-25T10:37:39.717Z,53.95
2018-06-25T10:38:39.763Z,54.35
2018-06-25T10:39:39.719Z,53.53
2018-06-25T10:40:39.676Z,53.98
2018-06-25T10:41:39.625Z,54.45
2018-06-25T10:42:39.765Z,54.54
2018-06-25T10:43:39.590Z,55.03
2018-06-25T10:44:40.013Z,55.14
2018-06-25T10:45:39.598Z,55.53
2018-06-25T10:46:39.665Z,55.41
2018-06-25T10:47:39.625Z,55.06
2018-06-25T10:48:39.630Z,54.6
2018-06-25T10:49:39.659Z,54.1
2018-06-25T10:50:39.710Z,54.39
2018-06-25T10:51:39.616Z,54.61
2018-06-25T10:52:39.593Z,55
2018-06-25T10:53:39.618Z,55.35
2018-06-25T10:54:39.592Z,54.95
2018-06-25T10:55:39.594Z,55
2018-06-25T10:56:39.591Z,55.17
2018-06-25T10:57:39.651Z,54.29
2018-06-25T10:58:39.697Z,54.03
2018-06-25T10:59:39.816Z,53.97
2018-06-25T11:00:39.604Z,54.13
2018-06-25T11:01:39.600Z,53.92
2018-06-25T11:02:39.628Z,54.61
2018-06-25T11:03:39.592Z,54.67
2018-06-25T11:04:39.616Z,54.88
2018-06-25T11:05:39.796Z,54.94
2018-06-25T11:06:39.685Z,55.03
2018-06-25T11:07:39.703Z,54.67
2018-06-25T11:08:39.643Z,54.63
2018-06-25T11:09:39.610Z,54.42
2018-06-25T11:10:39.591Z,54.41
2018-06-25T11:11:39.604Z,53.67
2018-06-25T11:12:39.659Z,53.64
2018-06-25T11:13:39.623Z,53.35
2018-06-25T11:14:39.632Z,53.35
2018-06-25T11:15:39.664Z,53.38
2018-06-25T11:16:39.619Z,53.51
2018-06-25T11:17:39.640Z,51.51
2018-06-25T11:18:39.644Z,50.43
2018-06-25T11:19:39.638Z,49.72
2018-06-25T11:20:39.636Z,50.11
2018-06-25T11:21:39.602Z,49.28
2018-06-25T11:22:39.637Z,49.25
2018-06-25T11:23:39.621Z,49.09
2018-06-25T11:24:39.609Z,49.74
2018-06-25T11:25:39.632Z,49.15
2018-06-25T11:26:39.656Z,50.21
2018-06-25T11:27:39.708Z,50.42
2018-06-25T11:28:39.697Z,50.5
2018-06-25T11:29:39.654Z,51.28
2018-06-25T11:30:39.616Z,49.98
2018-06-25T11:31:39.639Z,50.01
2018-06-25T11:32:39.637Z,50.61
2018-06-25T11:33:39.625Z,50.65
2018-06-25T11:34:39.973Z,50.01
2018-06-25T11:35:39.635Z,49.72
2018-06-25T11:36:39.715Z,49.03
2018-06-25T11:37:39.713Z,49.61
2018-06-25T11:38:39.622Z,49.83
2018-06-25T11:39:39.631Z,50.08
2018-06-25T11:40:39.682Z,50.1
2018-06-25T11:41:39.648Z,50.31
2018-06-25T11:42:39.846Z,49.93
2018-06-25T11:43:39.692Z,49.45
2018-06-25T11:44:39.831Z,49.41
2018-06-25T11:45:39.621Z,48.89
2018-06-25T11:46:39.816Z,49.18
2018-06-25T11:47:39.706Z,48.84
2018-06-25T11:48:39.637Z,48.14
2018-06-25T11:49:39.656Z,47.86
2018-06-25T11:50:39.640Z,48.41
2018-06-25T11:51:39.856Z,49.19
2018-06-25T11:52:39.663Z,49.01
2018-06-25T11:53:39.660Z,49.04
2018-06-25T11:54:39.674Z,49.15
2018-06-25T11:55:39.885Z,48.42
2018-06-25T11:56:39.639Z,48.49
2018-06-25T11:57:39.627Z,48.67
2018-06-25T11:58:39.644Z,48.48
2018-06-25T11:59:39.628Z,48.15
2018-06-25T12:00:39.704Z,48.55
2018-06-25T12:01:39.667Z,48.23
2018-06-25T12:02:39.765Z,47.76
2018-06-25T12:03:39.658Z,47.74
2018-06-25T12:04:39.637Z,48.52
2018-06-25T12:05:39.663Z,49.72
2018-06-25T12:06:39.669Z,50.53
2018-06-25T12:07:39.666Z,51.03
2018-06-25T12:08:39.759Z,51.35
2018-06-25T12:09:39.651Z,51.05
2018-06-25T12:10:39.683Z,51.23
2018-06-25T12:11:39.785Z,51.33
2018-06-25T12:12:39.905Z,50.34
2018-06-25T12:13:40.066Z,50.06
2018-06-25T12:14:39.654Z,50.61
2018-06-25T12:15:39.688Z,50.12
2018-06-25T12:16:39.819Z,50.13
2018-06-25T12:17:39.717Z,49.72
2018-06-25T12:18:39.658Z,50
2018-06-25T12:19:39.876Z,49.75
2018-06-25T12:20:39.658Z,49.3
2018-06-25T12:21:39.856Z,50.45
2018-06-25T12:22:39.711Z,49.81
2018-06-25T12:23:40.088Z,49.5
2018-06-25T12:24:39.761Z,49.09
2018-06-25T12:25:39.700Z,49.21
2018-06-25T12:26:39.688Z,48.82
2018-06-25T12:27:39.824Z,48.41
2018-06-25T12:28:39.727Z,48.53
2018-06-25T12:29:40.325Z,48.73
2018-06-25T12:30:39.816Z,49.18
2018-06-25T12:31:39.834Z,49.11
2018-06-25T12:32:39.673Z,49.03
2018-06-25T12:33:39.690Z,48.45
2018-06-25T12:34:40.047Z,48.28
2018-06-25T12:35:39.683Z,48.37
2018-06-25T12:36:40.066Z,47.99
2018-06-25T12:37:39.692Z,48.19
2018-06-25T12:38:40.184Z,49.41
2018-06-25T12:39:39.681Z,48.23
2018-06-25T12:40:39.739Z,48.61
2018-06-25T12:41:39.698Z,47.89
2018-06-25T12:42:39.711Z,47.87
2018-06-25T12:43:39.681Z,48.25
2018-06-25T12:44:39.667Z,47.49
2018-06-25T12:45:39.695Z,47.87
2018-06-25T12:46:39.682Z,47.75
2018-06-25T12:47:39.732Z,47.9
2018-06-25T12:48:39.749Z,47.98
2018-06-25T12:49:39.687Z,47.95
2018-06-25T12:50:39.685Z,47.97
2018-06-25T12:51:39.722Z,47.72
2018-06-25T12:52:39.676Z,47.67
2018-06-25T12:53:39.744Z,47.46
2018-06-25T12:54:39.695Z,47.53
2018-06-25T12:55:39.685Z,46.7
2018-06-25T12:56:39.702Z,46.64
2018-06-25T12:57:40.008Z,46.97